Time;durP1;ratioP1;P1;durP2;ratioP2;P2;SDS_P1;SDS_P2;PMS_P1;PMS_P2;Temp;Humidity;BMP_temperature;BMP_pressure;BME280_temperature;BME280_humidity;BME280_pressure;Samples;Min_cycle;Max_cycle;Signal;HPM_P1;HPM_P2
2023/01/25 00:02:11;;;;;;;22.03;17.90;;;;;;;2.26;100.00;99718.94;5054179;28;20221;-72
2023/01/25 00:04:38;;;;;;;22.80;17.53;;;;;;;2.30;100.00;99715.09;5054229;28;20208;-72
2023/01/25 00:07:04;;;;;;;24.80;17.47;;;;;;;2.24;100.00;99715.59;5054182;28;20205;-72
2023/01/25 00:09:31;;;;;;;23.83;18.77;;;;;;;2.24;100.00;99712.97;5053878;28;20205;-72
2023/01/25 00:11:57;;;;;;;22.83;17.63;;;;;;;2.37;100.00;99703.13;5053378;28;20233;-72
2023/01/25 00:14:24;;;;;;;22.23;17.43;;;;;;;2.22;100.00;99694.72;5054046;28;20271;-73
2023/01/25 00:16:51;;;;;;;23.13;17.60;;;;;;;2.23;100.00;99695.56;5053993;28;20201;-72
2023/01/25 00:19:17;;;;;;;25.13;18.67;;;;;;;2.30;100.00;99694.91;5053999;28;20569;-72
2023/01/25 00:21:44;;;;;;;22.97;17.00;;;;;;;2.26;100.00;99693.50;5053522;28;20225;-72
2023/01/25 00:24:13;;;;;;;26.10;18.30;;;;;;;2.31;100.00;99699.19;5053535;28;20202;-72
2023/01/25 00:26:39;;;;;;;27.90;18.90;;;;;;;2.22;100.00;99692.09;5053637;28;20243;-72
2023/01/25 00:29:06;;;;;;;23.90;18.40;;;;;;;2.31;100.00;99693.94;5053785;28;20212;-72
2023/01/25 00:32:07;;;;;;;23.60;18.10;;;;;;;2.28;100.00;99685.50;5053913;28;20228;-72
2023/01/25 00:34:53;;;;;;;23.53;17.63;;;;;;;2.49;100.00;99686.34;5053619;28;20206;-72
2023/01/25 00:37:36;;;;;;;20.47;17.23;;;;;;;2.40;100.00;99687.13;5053193;28;20216;-72
2023/01/25 00:40:03;;;;;;;23.33;17.57;;;;;;;2.52;100.00;99694.78;5053276;28;20196;-72
2023/01/25 00:42:29;;;;;;;22.37;17.10;;;;;;;2.48;100.00;99697.81;5053458;28;20229;-73
2023/01/25 00:44:55;;;;;;;24.30;18.47;;;;;;;2.43;100.00;99700.00;5053432;28;20204;-72
2023/01/25 00:47:22;;;;;;;22.97;17.53;;;;;;;2.46;100.00;99694.47;5053498;28;20205;-72
2023/01/25 00:49:49;;;;;;;23.13;17.50;;;;;;;2.41;100.00;99692.25;5053488;28;20240;-72
2023/01/25 00:52:15;;;;;;;22.63;17.93;;;;;;;2.39;100.00;99680.22;5053445;28;20316;-72
2023/01/25 00:54:41;;;;;;;23.53;17.70;;;;;;;2.43;100.00;99679.00;5053439;28;20229;-72
2023/01/25 00:57:09;;;;;;;22.83;17.63;;;;;;;2.26;100.00;99683.00;5053519;28;20208;-72
2023/01/25 00:59:35;;;;;;;23.83;18.00;;;;;;;2.30;100.00;99676.56;5053446;28;20201;-72
2023/01/25 01:02:02;;;;;;;25.33;18.50;;;;;;;2.30;100.00;99678.34;5053410;28;20229;-72
2023/01/25 01:04:30;;;;;;;20.43;16.60;;;;;;;2.37;100.00;99669.00;5053282;28;20215;-73
2023/01/25 01:06:56;;;;;;;21.30;15.70;;;;;;;2.38;100.00;99675.91;5053379;28;20208;-72
2023/01/25 01:09:23;;;;;;;21.80;17.83;;;;;;;2.38;100.00;99671.50;5053349;28;20208;-72
2023/01/25 01:11:50;;;;;;;24.03;17.60;;;;;;;2.41;100.00;99670.41;5053121;28;20221;-72
2023/01/25 01:14:16;;;;;;;24.33;17.93;;;;;;;2.30;100.00;99680.97;5053322;28;20209;-72
2023/01/25 01:16:43;;;;;;;24.60;18.17;;;;;;;2.47;100.00;99664.63;5053241;28;20209;-72
2023/01/25 01:19:09;;;;;;;22.23;16.87;;;;;;;2.42;100.00;99675.53;5053368;28;20205;-72
2023/01/25 01:21:36;;;;;;;21.97;17.43;;;;;;;2.36;100.00;99660.31;5052846;28;20726;-73
2023/01/25 01:24:02;;;;;;;20.10;16.43;;;;;;;2.40;100.00;99679.25;5054359;28;20201;-72
2023/01/25 01:26:28;;;;;;;22.73;16.50;;;;;;;2.29;100.00;99677.50;5057299;28;20212;-72
2023/01/25 01:28:55;;;;;;;19.33;15.87;;;;;;;2.44;100.00;99662.28;5056879;28;20213;-72
2023/01/25 01:31:23;;;;;;;22.37;16.23;;;;;;;2.47;100.00;99670.72;5057116;28;20229;-72
2023/01/25 01:33:51;;;;;;;18.77;15.53;;;;;;;2.42;100.00;99667.66;5056985;28;20232;-72
2023/01/25 01:36:20;;;;;;;21.70;16.50;;;;;;;2.39;100.00;99674.97;5057059;28;20202;-72
2023/01/25 01:38:47;;;;;;;21.63;16.57;;;;;;;2.45;100.00;99669.19;5056703;28;20205;-72
2023/01/25 01:41:15;;;;;;;18.20;14.60;;;;;;;2.42;100.00;99667.66;5056873;28;20229;-72
2023/01/25 01:43:42;;;;;;;23.27;16.20;;;;;;;2.39;100.00;99667.09;5056905;28;20207;-73
2023/01/25 01:46:31;;;;;;;20.37;15.63;;;;;;;2.41;100.00;99665.16;5056915;28;20549;-72
2023/01/25 01:49:00;;;;;;;23.03;16.63;;;;;;;2.39;100.00;99661.84;5056876;28;20239;-72
2023/01/25 01:51:45;;;;;;;21.13;17.03;;;;;;;2.28;100.00;99670.63;5056400;28;20225;-72
2023/01/25 01:54:14;;;;;;;21.67;16.10;;;;;;;2.40;100.00;99671.38;5056667;28;20213;-72
2023/01/25 01:56:45;;;;;;;22.70;16.73;;;;;;;2.38;100.00;99668.03;5056659;28;20205;-72
2023/01/25 01:59:12;;;;;;;21.63;16.97;;;;;;;2.35;100.00;99686.69;5056333;28;20283;-73
2023/01/25 02:01:39;;;;;;;21.37;16.80;;;;;;;2.38;100.00;99665.41;5056531;28;20598;-72
2023/01/25 02:04:08;;;;;;;21.53;17.17;;;;;;;2.33;100.00;99667.59;5056230;28;20201;-72
2023/01/25 02:06:52;;;;;;;21.70;16.53;;;;;;;2.34;100.00;99669.28;5056507;28;20543;-72
2023/01/25 02:09:23;;;;;;;21.77;16.57;;;;;;;2.39;100.00;99669.72;5056743;28;20197;-73
2023/01/25 02:11:51;;;;;;;21.80;16.43;;;;;;;2.39;100.00;99667.91;5054749;28;20232;-72
2023/01/25 02:14:19;;;;;;;22.43;16.27;;;;;;;2.38;100.00;99670.66;5056295;28;20213;-72
2023/01/25 02:16:46;;;;;;;23.53;18.13;;;;;;;2.30;100.00;99683.59;5056267;28;20201;-72
2023/01/25 02:19:31;;;;;;;21.97;15.77;;;;;;;2.34;100.00;99661.41;5056447;28;20204;-72
2023/01/25 02:21:59;;;;;;;22.40;17.03;;;;;;;2.31;100.00;99664.28;5054694;28;20589;-72
2023/01/25 02:24:33;;;;;;;25.13;17.70;;;;;;;2.37;100.00;99664.59;5056109;28;20308;-72
2023/01/25 02:26:59;;;;;;;22.87;17.40;;;;;;;2.25;100.00;99676.09;5055832;28;20200;-72
2023/01/25 02:29:28;;;;;;;25.47;17.60;;;;;;;2.20;100.00;99667.78;5055774;28;20205;-72
2023/01/25 02:32:06;;;;;;;24.87;17.33;;;;;;;2.38;100.00;99654.91;5055884;28;20232;-72
2023/01/25 02:34:32;;;;;;;21.53;15.93;;;;;;;2.37;100.00;99646.22;5055764;28;20228;-72
2023/01/25 02:36:59;;;;;;;24.27;17.60;;;;;;;2.32;100.00;99651.03;5055944;28;20206;-72
2023/01/25 02:39:27;;;;;;;22.27;16.63;;;;;;;2.27;100.00;99650.59;5055227;28;20213;-72
2023/01/25 02:41:54;;;;;;;23.53;16.20;;;;;;;2.33;100.00;99646.59;5055762;28;20232;-72
2023/01/25 02:44:30;;;;;;;22.33;17.03;;;;;;;2.38;100.00;99649.66;5055761;28;20205;-72
2023/01/25 02:46:57;;;;;;;22.47;16.87;;;;;;;2.35;100.00;99648.13;5054638;28;20189;-72
2023/01/25 02:49:24;;;;;;;25.83;16.53;;;;;;;2.35;100.00;99645.50;5055704;28;20201;-73
2023/01/25 02:51:54;;;;;;;22.27;16.40;;;;;;;2.46;100.00;99655.09;5055230;28;20279;-72
2023/01/25 02:54:21;;;;;;;23.20;16.47;;;;;;;2.38;100.00;99645.25;5055209;28;20205;-72
2023/01/25 02:56:48;;;;;;;20.63;15.83;;;;;;;2.28;100.00;99643.53;5055558;28;20205;-72
2023/01/25 02:59:14;;;;;;;24.00;15.60;;;;;;;2.34;100.00;99637.78;5055499;28;20213;-72
2023/01/25 03:01:43;;;;;;;24.90;15.40;;;;;;;2.40;100.00;99630.19;5055200;28;20243;-72
2023/01/25 03:04:10;;;;;;;21.23;15.23;;;;;;;2.36;100.00;99631.44;5055323;28;20216;-72
2023/01/25 03:06:37;;;;;;;21.60;16.40;;;;;;;2.40;100.00;99629.38;5055234;28;20664;-72
2023/01/25 03:09:06;;;;;;;20.97;16.53;;;;;;;2.26;100.00;99627.09;5054958;28;20672;-72
2023/01/25 03:11:33;;;;;;;23.77;17.20;;;;;;;2.26;100.00;99627.09;5054866;28;20232;-72
2023/01/25 03:13:59;;;;;;;22.63;16.60;;;;;;;2.23;100.00;99622.09;5055068;28;20279;-72
2023/01/25 03:16:25;;;;;;;22.80;16.77;;;;;;;2.22;100.00;99623.88;5054817;28;20205;-72
2023/01/25 03:18:55;;;;;;;21.10;16.37;;;;;;;2.28;100.00;99618.13;5055080;28;20216;-72
2023/01/25 03:21:23;;;;;;;21.90;16.17;;;;;;;2.37;100.00;99613.88;5055019;28;20229;-72
2023/01/25 03:23:58;;;;;;;20.37;15.77;;;;;;;2.39;100.00;99614.59;5054990;28;20212;-72
2023/01/25 03:26:26;;;;;;;22.13;15.90;;;;;;;2.38;100.00;99607.66;5055016;28;20195;-72
2023/01/25 03:28:52;;;;;;;19.43;15.53;;;;;;;2.41;100.00;99607.41;5054926;28;20309;-72
2023/01/25 03:31:19;;;;;;;20.93;15.40;;;;;;;2.31;100.00;99606.53;5055259;28;20231;-72
2023/01/25 03:33:46;;;;;;;20.77;15.47;;;;;;;2.34;100.00;99603.66;5055013;28;20599;-72
2023/01/25 03:36:13;;;;;;;19.97;14.77;;;;;;;2.39;100.00;99598.84;5054774;28;20205;-72
2023/01/25 03:38:39;;;;;;;18.83;14.57;;;;;;;2.38;100.00;99607.66;5054761;28;20205;-72
2023/01/25 03:41:06;;;;;;;20.80;15.97;;;;;;;2.28;100.00;99605.00;5054462;28;20205;-72
2023/01/25 03:43:33;;;;;;;20.57;14.20;;;;;;;2.30;100.00;99613.56;5054542;28;20209;-72
2023/01/25 03:46:01;;;;;;;20.43;15.30;;;;;;;2.24;100.00;99611.47;5054451;28;20201;-72
2023/01/25 03:48:28;;;;;;;21.10;14.73;;;;;;;2.22;100.00;99608.13;5054149;28;20205;-72
2023/01/25 03:50:57;;;;;;;21.37;15.63;;;;;;;2.10;100.00;99601.31;5054119;28;20695;-72
2023/01/25 03:53:28;;;;;;;20.03;15.37;;;;;;;2.26;100.00;99600.84;5054418;28;20213;-72
2023/01/25 03:56:00;;;;;;;21.90;15.60;;;;;;;2.16;100.00;99605.22;5054351;28;20209;-72
2023/01/25 03:58:28;;;;;;;21.43;15.83;;;;;;;2.15;100.00;99598.28;5054361;28;20189;-72
2023/01/25 04:00:56;;;;;;;23.10;15.50;;;;;;;2.22;100.00;99599.44;5054146;28;20205;-72
2023/01/25 04:03:24;;;;;;;21.00;15.50;;;;;;;2.18;100.00;99598.88;5054175;28;20209;-72
2023/01/25 04:05:51;;;;;;;19.07;14.03;;;;;;;2.30;100.00;99600.44;5054144;28;20288;-72
2023/01/25 04:08:17;;;;;;;21.73;15.10;;;;;;;2.30;100.00;99597.00;5053761;28;20205;-72
2023/01/25 04:10:44;;;;;;;19.50;15.13;;;;;;;2.18;100.00;99596.25;5054062;28;20205;-73
2023/01/25 04:13:11;;;;;;;22.40;15.87;;;;;;;2.25;100.00;99593.94;5053624;28;20240;-72
2023/01/25 04:15:37;;;;;;;24.00;16.43;;;;;;;2.24;100.00;99598.34;5053761;28;20247;-72
2023/01/25 04:18:04;;;;;;;20.23;15.27;;;;;;;2.20;100.00;99603.97;5053872;28;20212;-72
2023/01/25 04:20:30;;;;;;;18.07;14.07;;;;;;;2.32;100.00;99602.94;5053503;28;20672;-72
2023/01/25 04:22:56;;;;;;;22.63;15.90;;;;;;;2.22;100.00;99597.63;5053737;28;20221;-72
2023/01/25 04:25:23;;;;;;;21.43;15.63;;;;;;;2.21;100.00;99593.34;5053929;28;20564;-72
2023/01/25 04:27:50;;;;;;;19.17;13.93;;;;;;;2.21;100.00;99597.78;5052592;28;20227;-72
2023/01/25 04:30:16;;;;;;;17.97;14.07;;;;;;;2.21;100.00;99600.41;5053607;28;20205;-72
2023/01/25 04:32:43;;;;;;;19.57;13.23;;;;;;;2.24;100.00;99600.13;5053296;28;20567;-72
2023/01/25 04:35:09;;;;;;;19.10;14.53;;;;;;;2.13;100.00;99582.69;5053304;28;20308;-72
2023/01/25 04:37:35;;;;;;;16.53;13.33;;;;;;;2.15;100.00;99577.28;5053425;28;20213;-72
2023/01/25 04:40:02;;;;;;;14.60;12.00;;;;;;;2.21;100.00;99577.59;5053074;28;20216;-72
2023/01/25 04:42:29;;;;;;;15.27;11.73;;;;;;;2.30;100.00;99581.25;5053301;28;20255;-72
2023/01/25 04:44:55;;;;;;;17.03;12.63;;;;;;;2.39;100.00;99583.13;5052711;28;20201;-72
2023/01/25 04:47:22;;;;;;;17.37;12.53;;;;;;;2.24;100.00;99589.63;5052573;28;20205;-72
2023/01/25 04:49:48;;;;;;;16.17;12.30;;;;;;;2.24;100.00;99573.88;5052763;28;20209;-72
2023/01/25 04:52:14;;;;;;;17.53;12.50;;;;;;;2.29;100.00;99577.81;5052619;28;20232;-72
2023/01/25 04:54:41;;;;;;;16.47;12.10;;;;;;;2.24;100.00;99582.59;5052381;28;20231;-72
2023/01/25 04:57:07;;;;;;;16.67;12.93;;;;;;;2.24;100.00;99579.13;5052842;28;20201;-72
2023/01/25 04:59:34;;;;;;;17.63;12.67;;;;;;;2.33;100.00;99586.22;5051996;28;20212;-72
2023/01/25 05:02:00;;;;;;;16.23;12.83;;;;;;;2.30;100.00;99582.09;5053076;28;20225;-72
2023/01/25 05:04:27;;;;;;;15.00;11.93;;;;;;;2.40;100.00;99576.88;5052970;28;20204;-72
2023/01/25 05:06:54;;;;;;;15.37;12.00;;;;;;;2.37;100.00;99574.50;5052849;28;20213;-72
2023/01/25 05:09:20;;;;;;;15.73;12.10;;;;;;;2.28;100.00;99581.38;5052764;28;20573;-72
2023/01/25 05:11:46;;;;;;;16.17;12.27;;;;;;;2.39;100.00;99577.88;5052843;28;20229;-72
2023/01/25 05:14:13;;;;;;;17.17;12.90;;;;;;;2.43;100.00;99574.81;5053047;28;20200;-73
2023/01/25 05:16:39;;;;;;;16.53;12.10;;;;;;;2.31;100.00;99570.63;5052982;28;20205;-72
2023/01/25 05:19:05;;;;;;;14.53;11.60;;;;;;;2.37;100.00;99579.75;5052940;28;20213;-72
2023/01/25 05:24:15;;;;;;;16.60;12.10;;;;;;;2.31;100.00;99568.00;5052399;28;20247;-71
2023/01/25 05:27:00;;;;;;;14.87;12.13;;;;;;;2.24;100.00;99561.63;5052664;28;20215;-72
2023/01/25 05:29:31;;;;;;;17.43;12.27;;;;;;;2.38;100.00;99563.91;5053620;28;20185;-72
2023/01/25 05:31:58;;;;;;;15.10;11.50;;;;;;;2.42;100.00;99564.44;5053058;28;20233;-72
2023/01/25 05:34:25;;;;;;;15.37;11.50;;;;;;;2.34;100.00;99566.94;5052774;28;20236;-72
2023/01/25 05:36:52;;;;;;;16.30;11.60;;;;;;;2.34;100.00;99561.69;5052760;28;20205;-72
2023/01/25 05:39:19;;;;;;;16.57;11.87;;;;;;;2.32;100.00;99560.97;5052567;28;20688;-72
2023/01/25 05:41:45;;;;;;;13.27;10.53;;;;;;;2.21;100.00;99567.13;5052401;28;20232;-72
2023/01/25 05:44:11;;;;;;;14.17;11.57;;;;;;;2.32;100.00;99563.59;5052829;28;20205;-72
2023/01/25 05:46:38;;;;;;;16.30;12.03;;;;;;;2.32;100.00;99560.97;5052573;28;20213;-72
2023/01/25 05:49:04;;;;;;;13.80;11.20;;;;;;;2.30;100.00;99562.91;5052751;28;20205;-72
2023/01/25 05:51:31;;;;;;;14.23;11.00;;;;;;;2.30;100.00;99557.66;5052512;28;20229;-72
2023/01/25 05:53:58;;;;;;;13.33;11.50;;;;;;;2.33;100.00;99557.38;5052426;28;20573;-72
2023/01/25 05:56:24;;;;;;;14.37;10.83;;;;;;;2.36;100.00;99557.97;5052036;28;20229;-72
2023/01/25 05:58:55;;;;;;;13.87;10.73;;;;;;;2.37;100.00;99554.38;5052373;28;20213;-72
2023/01/25 06:01:21;;;;;;;12.00;9.73;;;;;;;2.45;100.00;99556.34;5052507;28;20225;-72
2023/01/25 06:03:48;;;;;;;12.43;9.43;;;;;;;2.44;100.00;99558.09;5052371;28;20212;-72
2023/01/25 06:06:15;;;;;;;13.23;10.10;;;;;;;2.39;100.00;99551.63;5052238;28;20209;-72
2023/01/25 06:08:42;;;;;;;13.60;10.53;;;;;;;2.30;100.00;99552.41;5052510;28;20209;-72
2023/01/25 06:11:13;;;;;;;12.87;9.80;;;;;;;2.35;100.00;99555.47;5054950;28;20209;-72
2023/01/25 06:13:40;;;;;;;14.27;8.97;;;;;;;2.33;100.00;99557.38;5055187;28;20590;-72
2023/01/25 06:16:07;;;;;;;12.03;10.17;;;;;;;2.34;100.00;99546.75;5055341;28;20233;-72
2023/01/25 06:18:35;;;;;;;14.10;9.80;;;;;;;2.31;100.00;99548.81;5055234;28;20205;-72
2023/01/25 06:21:02;;;;;;;14.07;10.83;;;;;;;2.27;100.00;99552.66;5055447;28;20205;-72
2023/01/25 06:23:28;;;;;;;12.07;9.50;;;;;;;2.35;100.00;99555.47;5055439;28;20205;-72
2023/01/25 06:25:59;;;;;;;13.10;10.07;;;;;;;2.33;100.00;99546.88;5055392;28;20197;-71
2023/01/25 06:28:25;;;;;;;13.33;10.03;;;;;;;2.30;100.00;99547.16;5055716;28;20205;-71
2023/01/25 06:30:51;;;;;;;11.63;9.97;;;;;;;2.29;100.00;99556.81;5055400;28;20212;-71
2023/01/25 06:33:18;;;;;;;13.90;10.43;;;;;;;2.17;100.00;99546.53;5055097;28;20237;-71
2023/01/25 06:35:44;;;;;;;11.93;9.63;;;;;;;2.11;100.00;99539.16;5054997;28;20718;-71
2023/01/25 06:38:11;;;;;;;13.27;10.23;;;;;;;2.15;100.00;99544.03;5055017;28;20209;-71
2023/01/25 06:40:37;;;;;;;13.80;10.17;;;;;;;2.18;100.00;99542.94;5054976;28;20201;-71
2023/01/25 06:43:11;;;;;;;13.30;10.30;;;;;;;2.19;100.00;99545.44;5054913;28;20316;-71
2023/01/25 06:45:38;;;;;;;13.37;10.13;;;;;;;2.43;100.00;99547.78;5054768;28;20204;-71
2023/01/25 06:48:05;;;;;;;13.60;10.37;;;;;;;2.28;100.00;99541.19;5054521;28;20201;-72
2023/01/25 06:50:31;;;;;;;12.87;10.63;;;;;;;2.27;100.00;99536.91;5055048;28;20220;-71
2023/01/25 06:52:57;;;;;;;14.90;11.27;;;;;;;2.17;100.00;99536.84;5054630;28;20233;-71
2023/01/25 06:55:24;;;;;;;15.17;9.90;;;;;;;2.18;100.00;99537.69;5055001;28;20221;-72
2023/01/25 06:57:50;;;;;;;13.90;10.60;;;;;;;2.27;100.00;99532.50;5054876;28;20661;-71
2023/01/25 07:00:17;;;;;;;14.73;10.33;;;;;;;2.27;100.00;99527.25;5055033;28;20578;-71
2023/01/25 07:02:43;;;;;;;15.93;10.70;;;;;;;2.25;100.00;99526.53;5054715;28;20233;-71
2023/01/25 07:05:10;;;;;;;14.97;9.87;;;;;;;2.35;100.00;99532.66;5054470;28;20209;-71
2023/01/25 07:07:36;;;;;;;14.03;9.57;;;;;;;2.37;100.00;99528.13;5055242;28;20201;-71
2023/01/25 07:10:03;;;;;;;13.03;10.07;;;;;;;2.45;100.00;99530.94;5054287;28;20221;-71
2023/01/25 07:12:29;;;;;;;13.60;10.60;;;;;;;2.44;100.00;99521.38;5054607;28;20240;-71
2023/01/25 07:14:55;;;;;;;15.50;10.93;;;;;;;2.41;100.00;99512.94;5054550;28;20221;-71
2023/01/25 07:17:22;;;;;;;14.00;10.20;;;;;;;2.37;100.00;99530.75;5054081;28;20205;-72
2023/01/25 07:19:48;;;;;;;11.77;9.57;;;;;;;2.40;100.00;99529.66;5054455;28;20212;-71
2023/01/25 07:22:14;;;;;;;13.97;10.17;;;;;;;2.47;100.00;99530.78;5053330;28;20232;-71
2023/01/25 07:24:42;;;;;;;12.60;9.83;;;;;;;2.42;100.00;99523.31;5054172;28;20213;-71
2023/01/25 07:27:08;;;;;;;14.10;10.27;;;;;;;2.34;100.00;99520.50;5054430;28;20660;-71
2023/01/25 07:29:34;;;;;;;15.33;10.60;;;;;;;2.22;100.00;99524.16;5054405;28;20571;-71
2023/01/25 07:32:01;;;;;;;15.37;10.10;;;;;;;2.33;100.00;99523.25;5053763;28;20233;-71
2023/01/25 07:34:28;;;;;;;12.63;9.67;;;;;;;2.27;100.00;99518.53;5053766;28;20207;-72
2023/01/25 07:36:54;;;;;;;12.90;9.77;;;;;;;2.27;100.00;99518.53;5053888;28;20278;-71
2023/01/25 07:39:20;;;;;;;15.17;10.57;;;;;;;2.18;100.00;99508.84;5054065;28;20220;-71
2023/01/25 07:41:47;;;;;;;10.80;8.83;;;;;;;2.31;100.00;99506.81;5053237;28;20221;-71
2023/01/25 07:44:13;;;;;;;12.27;9.20;;;;;;;2.32;100.00;99511.09;5053651;28;20569;-72
2023/01/25 07:46:39;;;;;;;11.50;9.50;;;;;;;2.37;100.00;99506.28;5053706;28;20202;-71
2023/01/25 07:49:06;;;;;;;11.30;9.20;;;;;;;2.44;100.00;99496.94;5053520;28;20541;-71
2023/01/25 07:51:32;;;;;;;12.30;10.17;;;;;;;2.49;100.00;99507.84;5053395;28;20571;-71
2023/01/25 07:54:01;;;;;;;12.00;8.97;;;;;;;2.50;100.00;99514.75;5053259;28;20570;-71
2023/01/25 07:56:33;;;;;;;11.97;9.47;;;;;;;2.47;100.00;99515.00;5053456;28;20320;-71
2023/01/25 07:59:02;;;;;;;11.37;9.03;;;;;;;2.43;100.00;99511.03;5053824;28;20193;-71
2023/01/25 08:01:31;;;;;;;14.07;9.97;;;;;;;2.45;100.00;99516.97;5053088;28;20738;-71
2023/01/25 08:03:57;;;;;;;14.07;10.27;;;;;;;2.45;100.00;99511.72;5053500;28;20208;-72
2023/01/25 08:06:26;;;;;;;12.93;9.77;;;;;;;2.31;100.00;99517.31;5053297;28;20287;-72
2023/01/25 08:08:53;;;;;;;11.53;9.63;;;;;;;2.37;100.00;99520.25;5053627;28;20275;-72
2023/01/25 08:11:23;;;;;;;13.47;9.07;;;;;;;2.51;100.00;99519.03;5053615;28;20225;-71
2023/01/25 08:13:49;;;;;;;12.13;9.87;;;;;;;2.39;100.00;99518.31;5053264;28;20224;-72
2023/01/25 08:16:19;;;;;;;12.40;9.90;;;;;;;2.46;100.00;99518.63;5053148;28;20691;-71
2023/01/25 08:18:49;;;;;;;11.53;9.30;;;;;;;2.58;100.00;99526.25;5053332;28;20209;-72
2023/01/25 08:21:15;;;;;;;11.70;9.47;;;;;;;2.33;100.00;99515.38;5053261;28;20265;-72
2023/01/25 08:23:42;;;;;;;11.90;9.13;;;;;;;2.46;100.00;99514.22;5053114;28;20213;-72
2023/01/25 08:26:11;;;;;;;12.17;9.50;;;;;;;2.44;100.00;99517.94;5053113;28;20561;-71
2023/01/25 08:28:38;;;;;;;12.07;9.40;;;;;;;2.52;100.00;99524.16;5053389;28;20209;-72
2023/01/25 08:31:13;;;;;;;11.03;8.77;;;;;;;2.55;100.00;99521.28;5053109;28;20208;-72
2023/01/25 08:33:41;;;;;;;11.77;9.37;;;;;;;2.32;100.00;99519.81;5052946;28;20189;-72
2023/01/25 08:36:09;;;;;;;10.83;9.27;;;;;;;2.54;100.00;99519.63;5053140;28;20235;-71
2023/01/25 08:38:36;;;;;;;12.47;8.50;;;;;;;2.63;100.00;99520.63;5052616;28;20216;-72
2023/01/25 08:41:11;;;;;;;11.60;8.90;;;;;;;2.49;100.00;99519.16;5053199;28;20209;-71
2023/01/25 08:43:38;;;;;;;10.67;8.97;;;;;;;2.39;100.00;99512.25;5053091;28;20577;-71
2023/01/25 08:46:05;;;;;;;11.47;9.27;;;;;;;2.44;100.00;99504.81;5053336;28;20209;-72
2023/01/25 08:48:32;;;;;;;9.97;8.40;;;;;;;2.55;100.00;99502.06;5053285;28;20201;-72
2023/01/25 08:50:59;;;;;;;11.40;8.60;;;;;;;2.58;100.00;99505.25;5052736;28;20687;-71
2023/01/25 08:53:28;;;;;;;11.60;8.87;;;;;;;2.43;100.00;99500.53;5053389;28;20205;-71
2023/01/25 08:55:54;;;;;;;13.93;8.70;;;;;;;2.55;100.00;99496.81;5053207;28;20221;-71
2023/01/25 08:58:21;;;;;;;10.70;9.00;;;;;;;2.56;100.00;99493.22;5052747;28;20683;-71
2023/01/25 09:00:48;;;;;;;12.37;8.73;;;;;;;2.49;100.00;99490.28;5053122;28;20209;-71
2023/01/25 09:03:16;;;;;;;11.87;8.40;;;;;;;2.34;100.00;99488.19;5053100;28;20225;-72
2023/01/25 09:05:43;;;;;;;11.97;9.37;;;;;;;2.44;100.00;99484.63;5052753;28;20205;-72
2023/01/25 09:08:10;;;;;;;12.83;9.23;;;;;;;2.40;100.00;99487.66;5053056;28;20201;-71
2023/01/25 09:10:37;;;;;;;12.97;9.30;;;;;;;2.53;100.00;99483.81;5053203;28;20205;-71
2023/01/25 09:13:03;;;;;;;11.90;9.53;;;;;;;2.44;100.00;99478.56;5052758;28;20237;-71
2023/01/25 09:15:30;;;;;;;12.27;9.23;;;;;;;2.27;100.00;99474.78;5052766;28;20319;-71
2023/01/25 09:17:57;;;;;;;11.10;9.30;;;;;;;2.46;100.00;99479.25;5053700;28;20207;-71
2023/01/25 09:20:24;;;;;;;11.03;8.67;;;;;;;2.62;100.00;99483.00;5052953;28;20572;-71
2023/01/25 09:22:50;;;;;;;12.87;10.07;;;;;;;2.59;100.00;99485.94;5052451;28;20226;-71
2023/01/25 09:25:17;;;;;;;11.97;9.60;;;;;;;2.44;100.00;99486.44;5052821;28;20204;-71
2023/01/25 09:27:43;;;;;;;10.97;8.87;;;;;;;2.37;100.00;99486.13;5052637;28;20212;-71
2023/01/25 09:30:10;;;;;;;11.33;8.80;;;;;;;2.42;100.00;99485.72;5052741;28;20209;-71
2023/01/25 09:32:37;;;;;;;13.40;9.20;;;;;;;2.38;100.00;99482.53;5052728;28;20221;-71
2023/01/25 09:35:04;;;;;;;11.37;9.47;;;;;;;2.44;100.00;99481.19;5052868;28;20263;-71
2023/01/25 09:37:30;;;;;;;11.90;9.43;;;;;;;2.66;100.00;99473.09;5052447;28;20240;-72
2023/01/25 09:39:57;;;;;;;12.60;9.03;;;;;;;2.63;100.00;99475.97;5052691;28;20216;-71
2023/01/25 09:42:35;;;;;;;11.47;9.00;;;;;;;2.87;100.00;99481.69;5052516;28;20241;-72
2023/01/25 09:45:23;;;;;;;11.47;8.63;;;;;;;2.81;100.00;99477.00;5054362;28;20197;-71
2023/01/25 09:48:11;;;;;;;11.73;9.50;;;;;;;2.83;100.00;99475.03;5056454;28;20189;-71
2023/01/25 09:50:48;;;;;;;11.53;9.37;;;;;;;2.58;100.00;99479.00;5056120;28;20189;-72
2023/01/25 09:53:36;;;;;;;11.47;9.60;;;;;;;2.54;100.00;99476.78;5056991;28;20224;-72
2023/01/25 09:56:15;;;;;;;10.93;8.33;;;;;;;2.81;100.00;99484.88;5055953;28;20225;-72
2023/01/25 09:58:48;;;;;;;12.00;8.80;;;;;;;2.72;100.00;99476.00;5056065;28;20197;-72
2023/01/25 10:01:20;;;;;;;15.20;9.80;;;;;;;2.50;100.00;99480.63;5057001;28;20240;-72
2023/01/25 10:03:56;;;;;;;12.13;8.73;;;;;;;2.79;100.00;99471.03;5056281;28;20209;-72
2023/01/25 10:06:27;;;;;;;11.70;9.23;;;;;;;2.61;100.00;99473.47;5056222;28;20189;-72
2023/01/25 10:09:35;;;;;;;11.87;9.37;;;;;;;2.67;100.00;99467.69;5056667;28;20194;-72
2023/01/25 10:12:25;;;;;;;12.53;10.13;;;;;;;2.76;100.00;99472.13;5050234;28;20228;-72
2023/01/25 10:14:53;;;;;;;13.03;9.57;;;;;;;2.92;100.00;99472.44;5055055;28;20236;-72
2023/01/25 10:17:39;;;;;;;12.97;9.37;;;;;;;2.77;100.00;99468.56;5055878;28;20218;-72
2023/01/25 10:20:52;;;;;;;13.00;9.90;;;;;;;2.52;100.00;99463.78;5054731;28;20199;-72
2023/01/25 10:24:15;;;;;;;13.37;10.57;;;;;;;2.67;100.00;99462.44;5013776;28;20787;-72
2023/01/25 10:26:48;;;;;;;13.10;10.27;;;;;;;2.84;100.00;99453.91;4936544;29;20208;-71
2023/01/25 10:29:22;;;;;;;12.23;9.77;;;;;;;2.77;100.00;99452.81;4976391;28;20218;-72
2023/01/25 10:31:52;;;;;;;11.80;9.27;;;;;;;2.85;100.00;99450.31;5028710;28;20238;-72
2023/01/25 10:34:29;;;;;;;13.57;10.33;;;;;;;2.79;100.00;99458.72;5055338;28;20623;-72
2023/01/25 10:37:00;;;;;;;13.13;10.30;;;;;;;2.59;100.00;99449.19;5055430;28;20209;-72
2023/01/25 10:39:29;;;;;;;12.53;10.20;;;;;;;2.49;100.00;99442.25;5055977;28;20199;-72
2023/01/25 10:42:09;;;;;;;14.30;10.57;;;;;;;2.72;100.00;99438.41;5055512;28;20233;-72
2023/01/25 10:44:37;;;;;;;12.30;10.00;;;;;;;2.92;100.00;99438.28;5054299;28;20201;-72
2023/01/25 10:47:29;;;;;;;10.93;9.67;;;;;;;2.87;100.00;99430.00;5055714;28;20213;-72
2023/01/25 10:49:57;;;;;;;12.20;9.73;;;;;;;2.85;100.00;99424.03;5055110;28;20633;-72
2023/01/25 10:52:26;;;;;;;12.50;10.07;;;;;;;2.75;100.00;99430.28;5054807;28;20727;-72
2023/01/25 10:55:14;;;;;;;14.20;11.23;;;;;;;2.71;100.00;99428.88;5055351;28;20216;-72
2023/01/25 10:57:44;;;;;;;12.63;10.93;;;;;;;2.64;100.00;99423.34;5055441;28;20601;-72
2023/01/25 11:00:40;;;;;;;13.50;10.70;;;;;;;2.86;100.00;99417.00;5055265;28;20205;-72
2023/01/25 11:03:20;;;;;;;14.00;11.33;;;;;;;2.65;100.00;99425.00;5055170;28;20225;-72
2023/01/25 11:05:55;;;;;;;13.37;10.90;;;;;;;2.66;100.00;99421.41;5055138;28;20197;-72
2023/01/25 11:08:25;;;;;;;14.30;11.40;;;;;;;2.78;100.00;99422.09;5054674;28;20205;-72
2023/01/25 11:10:53;;;;;;;16.33;10.90;;;;;;;2.78;100.00;99412.44;5055046;28;20209;-72
2023/01/25 11:13:24;;;;;;;15.40;11.23;;;;;;;2.81;100.00;99406.06;5054572;28;20600;-72
2023/01/25 11:16:13;;;;;;;14.50;12.17;;;;;;;2.72;100.00;99414.78;5054459;28;20196;-72
2023/01/25 11:18:50;;;;;;;14.87;11.60;;;;;;;2.63;100.00;99415.59;5054545;28;20656;-72
2023/01/25 11:21:24;;;;;;;14.90;12.03;;;;;;;2.82;100.00;99411.19;5055061;28;20231;-72
2023/01/25 11:24:09;;;;;;;15.27;12.20;;;;;;;2.65;100.00;99397.91;5054218;28;20200;-72
2023/01/25 11:26:40;;;;;;;14.83;12.23;;;;;;;2.74;100.00;99407.59;5054608;28;20185;-72
2023/01/25 11:29:21;;;;;;;14.07;11.40;;;;;;;2.67;100.00;99401.25;5054476;28;20213;-72
2023/01/25 11:31:52;;;;;;;13.53;10.17;;;;;;;2.81;100.00;99406.06;5054173;28;20225;-72
2023/01/25 11:34:29;;;;;;;14.27;11.83;;;;;;;2.77;100.00;99388.94;5054450;28;20197;-72